sensor_id;sensor_type;location;lat;lon;timestamp;P1;durP1;ratioP1;P2;durP2;ratioP2
79338;SDS011;74181;41.704;44.786;2024-02-23T00:02:05;19.55;;;7.25;;
79338;SDS011;74181;41.704;44.786;2024-02-23T00:04:31;20.37;;;7.80;;
79338;SDS011;74181;41.704;44.786;2024-02-23T00:06:57;18.88;;;7.32;;
79338;SDS011;74181;41.704;44.786;2024-02-23T00:09:24;18.58;;;7.65;;
79338;SDS011;74181;41.704;44.786;2024-02-23T00:11:50;19.55;;;7.35;;
79338;SDS011;74181;41.704;44.786;2024-02-23T00:14:16;19.73;;;7.75;;
79338;SDS011;74181;41.704;44.786;2024-02-23T00:16:45;20.33;;;7.70;;
79338;SDS011;74181;41.704;44.786;2024-02-23T00:19:13;18.13;;;7.65;;
79338;SDS011;74181;41.704;44.786;2024-02-23T00:21:39;18.40;;;7.00;;
79338;SDS011;74181;41.704;44.786;2024-02-23T00:24:06;20.58;;;7.68;;
79338;SDS011;74181;41.704;44.786;2024-02-23T00:26:32;16.73;;;7.20;;
79338;SDS011;74181;41.704;44.786;2024-02-23T00:28:58;17.97;;;7.10;;
79338;SDS011;74181;41.704;44.786;2024-02-23T00:31:24;18.58;;;7.53;;
79338;SDS011;74181;41.704;44.786;2024-02-23T00:33:51;18.83;;;7.55;;
79338;SDS011;74181;41.704;44.786;2024-02-23T00:36:17;17.60;;;6.95;;
79338;SDS011;74181;41.704;44.786;2024-02-23T00:38:43;18.08;;;7.32;;
79338;SDS011;74181;41.704;44.786;2024-02-23T00:41:09;16.50;;;6.40;;
79338;SDS011;74181;41.704;44.786;2024-02-23T00:43:38;16.60;;;6.53;;
79338;SDS011;74181;41.704;44.786;2024-02-23T00:46:08;17.23;;;6.95;;
79338;SDS011;74181;41.704;44.786;2024-02-23T00:48:34;16.20;;;6.65;;
79338;SDS011;74181;41.704;44.786;2024-02-23T00:51:03;14.18;;;5.95;;
79338;SDS011;74181;41.704;44.786;2024-02-23T00:53:30;22.43;;;8.20;;
79338;SDS011;74181;41.704;44.786;2024-02-23T00:55:57;22.88;;;8.35;;
79338;SDS011;74181;41.704;44.786;2024-02-23T00:58:24;19.13;;;8.18;;
79338;SDS011;74181;41.704;44.786;2024-02-23T01:00:50;24.85;;;8.88;;
79338;SDS011;74181;41.704;44.786;2024-02-23T01:03:16;21.90;;;8.13;;
79338;SDS011;74181;41.704;44.786;2024-02-23T01:05:42;23.30;;;8.57;;
79338;SDS011;74181;41.704;44.786;2024-02-23T01:08:08;20.75;;;8.05;;
79338;SDS011;74181;41.704;44.786;2024-02-23T01:10:34;22.15;;;8.63;;
79338;SDS011;74181;41.704;44.786;2024-02-23T01:13:01;18.52;;;7.00;;
79338;SDS011;74181;41.704;44.786;2024-02-23T01:15:27;19.38;;;7.72;;
79338;SDS011;74181;41.704;44.786;2024-02-23T01:17:53;20.73;;;7.67;;
79338;SDS011;74181;41.704;44.786;2024-02-23T01:20:19;20.65;;;7.63;;
79338;SDS011;74181;41.704;44.786;2024-02-23T01:22:45;19.35;;;7.60;;
79338;SDS011;74181;41.704;44.786;2024-02-23T01:25:12;13.93;;;5.93;;
79338;SDS011;74181;41.704;44.786;2024-02-23T01:27:38;11.13;;;4.78;;
79338;SDS011;74181;41.704;44.786;2024-02-23T01:30:05;11.63;;;4.67;;
79338;SDS011;74181;41.704;44.786;2024-02-23T01:32:32;10.57;;;4.43;;
79338;SDS011;74181;41.704;44.786;2024-02-23T01:34:58;8.90;;;3.90;;
79338;SDS011;74181;41.704;44.786;2024-02-23T01:37:24;9.43;;;4.28;;
79338;SDS011;74181;41.704;44.786;2024-02-23T01:39:50;9.70;;;4.05;;
79338;SDS011;74181;41.704;44.786;2024-02-23T01:42:16;13.63;;;5.67;;
79338;SDS011;74181;41.704;44.786;2024-02-23T01:44:43;14.40;;;5.80;;
79338;SDS011;74181;41.704;44.786;2024-02-23T01:47:09;12.05;;;4.68;;
79338;SDS011;74181;41.704;44.786;2024-02-23T01:49:36;8.85;;;3.63;;
79338;SDS011;74181;41.704;44.786;2024-02-23T01:52:02;8.20;;;3.50;;
79338;SDS011;74181;41.704;44.786;2024-02-23T01:54:29;8.33;;;3.50;;
79338;SDS011;74181;41.704;44.786;2024-02-23T01:56:56;7.85;;;3.50;;
79338;SDS011;74181;41.704;44.786;2024-02-23T01:59:25;6.68;;;3.17;;
79338;SDS011;74181;41.704;44.786;2024-02-23T02:01:52;9.48;;;3.60;;
79338;SDS011;74181;41.704;44.786;2024-02-23T02:04:19;9.20;;;4.03;;
79338;SDS011;74181;41.704;44.786;2024-02-23T02:06:45;9.27;;;3.93;;
79338;SDS011;74181;41.704;44.786;2024-02-23T02:09:12;14.38;;;5.57;;
79338;SDS011;74181;41.704;44.786;2024-02-23T02:11:47;12.65;;;5.10;;
79338;SDS011;74181;41.704;44.786;2024-02-23T02:14:17;16.15;;;6.50;;
79338;SDS011;74181;41.704;44.786;2024-02-23T02:16:44;12.60;;;5.55;;
79338;SDS011;74181;41.704;44.786;2024-02-23T02:19:11;11.13;;;4.67;;
79338;SDS011;74181;41.704;44.786;2024-02-23T02:21:37;13.68;;;5.60;;
79338;SDS011;74181;41.704;44.786;2024-02-23T02:24:04;15.30;;;5.97;;
79338;SDS011;74181;41.704;44.786;2024-02-23T02:26:30;16.17;;;6.40;;
79338;SDS011;74181;41.704;44.786;2024-02-23T02:28:57;18.73;;;7.15;;
79338;SDS011;74181;41.704;44.786;2024-02-23T02:31:23;16.77;;;6.73;;
79338;SDS011;74181;41.704;44.786;2024-02-23T02:33:49;20.52;;;7.97;;
79338;SDS011;74181;41.704;44.786;2024-02-23T02:36:15;20.45;;;7.65;;
79338;SDS011;74181;41.704;44.786;2024-02-23T02:38:41;20.05;;;7.75;;
79338;SDS011;74181;41.704;44.786;2024-02-23T02:41:08;17.13;;;7.45;;
79338;SDS011;74181;41.704;44.786;2024-02-23T02:43:34;20.17;;;7.27;;
79338;SDS011;74181;41.704;44.786;2024-02-23T02:46:00;19.52;;;7.00;;
79338;SDS011;74181;41.704;44.786;2024-02-23T02:48:27;18.73;;;7.13;;
79338;SDS011;74181;41.704;44.786;2024-02-23T02:50:53;20.65;;;7.72;;
79338;SDS011;74181;41.704;44.786;2024-02-23T02:53:19;21.00;;;8.05;;
79338;SDS011;74181;41.704;44.786;2024-02-23T02:55:45;20.80;;;7.83;;
79338;SDS011;74181;41.704;44.786;2024-02-23T02:58:11;18.98;;;7.10;;
79338;SDS011;74181;41.704;44.786;2024-02-23T03:00:38;20.10;;;7.70;;
79338;SDS011;74181;41.704;44.786;2024-02-23T03:03:05;19.63;;;7.60;;
79338;SDS011;74181;41.704;44.786;2024-02-23T03:05:31;18.88;;;7.70;;
79338;SDS011;74181;41.704;44.786;2024-02-23T03:07:57;19.10;;;7.87;;
79338;SDS011;74181;41.704;44.786;2024-02-23T03:10:23;23.67;;;7.90;;
79338;SDS011;74181;41.704;44.786;2024-02-23T03:12:49;19.65;;;7.18;;
79338;SDS011;74181;41.704;44.786;2024-02-23T03:15:15;18.15;;;7.57;;
79338;SDS011;74181;41.704;44.786;2024-02-23T03:17:42;19.08;;;7.72;;
79338;SDS011;74181;41.704;44.786;2024-02-23T03:20:08;19.27;;;7.90;;
79338;SDS011;74181;41.704;44.786;2024-02-23T03:22:35;15.20;;;6.45;;
79338;SDS011;74181;41.704;44.786;2024-02-23T03:25:02;16.48;;;6.55;;
79338;SDS011;74181;41.704;44.786;2024-02-23T03:27:35;18.88;;;7.57;;
79338;SDS011;74181;41.704;44.786;2024-02-23T03:30:02;18.90;;;7.38;;
79338;SDS011;74181;41.704;44.786;2024-02-23T03:32:33;16.67;;;6.90;;
79338;SDS011;74181;41.704;44.786;2024-02-23T03:35:05;16.35;;;7.25;;
79338;SDS011;74181;41.704;44.786;2024-02-23T03:37:32;19.92;;;7.38;;
79338;SDS011;74181;41.704;44.786;2024-02-23T03:39:58;16.40;;;7.05;;
79338;SDS011;74181;41.704;44.786;2024-02-23T03:42:25;15.30;;;7.22;;
79338;SDS011;74181;41.704;44.786;2024-02-23T03:44:52;14.83;;;6.00;;
79338;SDS011;74181;41.704;44.786;2024-02-23T03:47:18;17.08;;;7.22;;
79338;SDS011;74181;41.704;44.786;2024-02-23T03:49:45;17.27;;;6.40;;
79338;SDS011;74181;41.704;44.786;2024-02-23T03:52:11;14.68;;;6.00;;
79338;SDS011;74181;41.704;44.786;2024-02-23T03:54:37;15.13;;;6.22;;
79338;SDS011;74181;41.704;44.786;2024-02-23T03:57:03;15.07;;;6.33;;
79338;SDS011;74181;41.704;44.786;2024-02-23T03:59:35;14.23;;;6.00;;
79338;SDS011;74181;41.704;44.786;2024-02-23T04:02:01;16.35;;;6.60;;
79338;SDS011;74181;41.704;44.786;2024-02-23T04:04:29;16.35;;;6.85;;
79338;SDS011;74181;41.704;44.786;2024-02-23T04:06:55;15.15;;;7.00;;
79338;SDS011;74181;41.704;44.786;2024-02-23T04:09:22;15.77;;;6.60;;
79338;SDS011;74181;41.704;44.786;2024-02-23T04:11:49;15.95;;;6.88;;
79338;SDS011;74181;41.704;44.786;2024-02-23T04:14:15;16.38;;;7.15;;
79338;SDS011;74181;41.704;44.786;2024-02-23T04:16:41;15.80;;;6.32;;
79338;SDS011;74181;41.704;44.786;2024-02-23T04:19:07;14.93;;;6.03;;
79338;SDS011;74181;41.704;44.786;2024-02-23T04:21:34;17.37;;;7.00;;
79338;SDS011;74181;41.704;44.786;2024-02-23T04:24:00;16.80;;;6.93;;
79338;SDS011;74181;41.704;44.786;2024-02-23T04:26:27;17.77;;;7.03;;
79338;SDS011;74181;41.704;44.786;2024-02-23T04:28:53;14.27;;;5.60;;
79338;SDS011;74181;41.704;44.786;2024-02-23T04:31:19;14.35;;;6.07;;
79338;SDS011;74181;41.704;44.786;2024-02-23T04:33:45;13.97;;;6.13;;
79338;SDS011;74181;41.704;44.786;2024-02-23T04:36:11;14.13;;;5.78;;
79338;SDS011;74181;41.704;44.786;2024-02-23T04:38:37;14.00;;;6.50;;
79338;SDS011;74181;41.704;44.786;2024-02-23T04:41:04;15.38;;;6.68;;
79338;SDS011;74181;41.704;44.786;2024-02-23T04:43:31;14.75;;;6.13;;
79338;SDS011;74181;41.704;44.786;2024-02-23T04:45:57;15.83;;;6.33;;
79338;SDS011;74181;41.704;44.786;2024-02-23T04:48:23;14.95;;;6.13;;
79338;SDS011;74181;41.704;44.786;2024-02-23T04:50:50;14.10;;;6.35;;
79338;SDS011;74181;41.704;44.786;2024-02-23T04:53:16;15.25;;;6.18;;
79338;SDS011;74181;41.704;44.786;2024-02-23T04:55:42;14.25;;;6.68;;
79338;SDS011;74181;41.704;44.786;2024-02-23T04:58:09;15.53;;;6.67;;
79338;SDS011;74181;41.704;44.786;2024-02-23T05:00:35;14.38;;;6.40;;
79338;SDS011;74181;41.704;44.786;2024-02-23T05:03:01;16.05;;;6.65;;
79338;SDS011;74181;41.704;44.786;2024-02-23T05:05:29;13.10;;;6.15;;
79338;SDS011;74181;41.704;44.786;2024-02-23T05:07:56;15.00;;;6.60;;
79338;SDS011;74181;41.704;44.786;2024-02-23T05:10:22;14.63;;;6.50;;
79338;SDS011;74181;41.704;44.786;2024-02-23T05:12:49;17.17;;;7.00;;
79338;SDS011;74181;41.704;44.786;2024-02-23T05:15:16;16.33;;;6.85;;
79338;SDS011;74181;41.704;44.786;2024-02-23T05:17:42;17.92;;;7.38;;
79338;SDS011;74181;41.704;44.786;2024-02-23T05:20:08;17.08;;;7.32;;
79338;SDS011;74181;41.704;44.786;2024-02-23T05:22:36;17.40;;;7.43;;
79338;SDS011;74181;41.704;44.786;2024-02-23T05:25:04;17.38;;;7.60;;
79338;SDS011;74181;41.704;44.786;2024-02-23T05:27:31;16.50;;;7.22;;
79338;SDS011;74181;41.704;44.786;2024-02-23T05:29:57;14.75;;;7.03;;
79338;SDS011;74181;41.704;44.786;2024-02-23T05:32:24;17.83;;;7.50;;
79338;SDS011;74181;41.704;44.786;2024-02-23T05:34:50;15.87;;;7.63;;
79338;SDS011;74181;41.704;44.786;2024-02-23T05:37:19;19.20;;;7.68;;
79338;SDS011;74181;41.704;44.786;2024-02-23T05:39:45;18.30;;;8.55;;
79338;SDS011;74181;41.704;44.786;2024-02-23T05:42:12;18.13;;;7.93;;
79338;SDS011;74181;41.704;44.786;2024-02-23T05:44:39;17.88;;;8.02;;
79338;SDS011;74181;41.704;44.786;2024-02-23T05:47:06;21.97;;;8.50;;
79338;SDS011;74181;41.704;44.786;2024-02-23T05:49:32;20.45;;;9.10;;
79338;SDS011;74181;41.704;44.786;2024-02-23T05:51:58;19.63;;;8.43;;
79338;SDS011;74181;41.704;44.786;2024-02-23T05:54:24;17.40;;;7.88;;
79338;SDS011;74181;41.704;44.786;2024-02-23T05:56:50;18.33;;;8.00;;
79338;SDS011;74181;41.704;44.786;2024-02-23T05:59:17;18.87;;;8.33;;
79338;SDS011;74181;41.704;44.786;2024-02-23T06:01:43;18.02;;;8.35;;
79338;SDS011;74181;41.704;44.786;2024-02-23T06:04:09;19.40;;;8.20;;
79338;SDS011;74181;41.704;44.786;2024-02-23T06:06:35;19.15;;;8.63;;
79338;SDS011;74181;41.704;44.786;2024-02-23T06:09:02;23.08;;;9.95;;
79338;SDS011;74181;41.704;44.786;2024-02-23T06:11:29;20.77;;;9.50;;
79338;SDS011;74181;41.704;44.786;2024-02-23T06:13:55;22.25;;;9.70;;
79338;SDS011;74181;41.704;44.786;2024-02-23T06:16:21;23.27;;;9.57;;
79338;SDS011;74181;41.704;44.786;2024-02-23T06:18:47;22.52;;;9.25;;
79338;SDS011;74181;41.704;44.786;2024-02-23T06:21:14;22.85;;;9.07;;
79338;SDS011;74181;41.704;44.786;2024-02-23T06:23:41;20.77;;;8.97;;
79338;SDS011;74181;41.704;44.786;2024-02-23T06:26:07;23.08;;;9.38;;
79338;SDS011;74181;41.704;44.786;2024-02-23T06:28:33;21.33;;;8.98;;
79338;SDS011;74181;41.704;44.786;2024-02-23T06:31:00;21.95;;;9.70;;
79338;SDS011;74181;41.704;44.786;2024-02-23T06:33:26;22.17;;;9.45;;
79338;SDS011;74181;41.704;44.786;2024-02-23T06:35:52;22.53;;;9.33;;
79338;SDS011;74181;41.704;44.786;2024-02-23T06:38:18;22.83;;;9.25;;
79338;SDS011;74181;41.704;44.786;2024-02-23T06:40:45;22.77;;;10.23;;
79338;SDS011;74181;41.704;44.786;2024-02-23T06:43:11;23.88;;;10.60;;
79338;SDS011;74181;41.704;44.786;2024-02-23T06:45:37;22.98;;;10.23;;
79338;SDS011;74181;41.704;44.786;2024-02-23T06:48:03;23.33;;;9.47;;
79338;SDS011;74181;41.704;44.786;2024-02-23T06:50:29;21.98;;;9.68;;
79338;SDS011;74181;41.704;44.786;2024-02-23T06:52:56;22.10;;;9.75;;
79338;SDS011;74181;41.704;44.786;2024-02-23T06:55:22;21.00;;;8.93;;
79338;SDS011;74181;41.704;44.786;2024-02-23T06:57:48;22.85;;;9.45;;
79338;SDS011;74181;41.704;44.786;2024-02-23T07:00:14;23.23;;;9.70;;
79338;SDS011;74181;41.704;44.786;2024-02-23T07:02:41;22.33;;;10.05;;
79338;SDS011;74181;41.704;44.786;2024-02-23T07:05:07;22.80;;;10.23;;
79338;SDS011;74181;41.704;44.786;2024-02-23T07:07:34;24.30;;;10.30;;
79338;SDS011;74181;41.704;44.786;2024-02-23T07:10:01;25.60;;;10.10;;
79338;SDS011;74181;41.704;44.786;2024-02-23T07:12:29;21.80;;;10.10;;
79338;SDS011;74181;41.704;44.786;2024-02-23T07:14:56;22.45;;;9.73;;
79338;SDS011;74181;41.704;44.786;2024-02-23T07:17:23;23.80;;;9.30;;
79338;SDS011;74181;41.704;44.786;2024-02-23T07:19:50;23.80;;;10.18;;
79338;SDS011;74181;41.704;44.786;2024-02-23T07:22:17;24.13;;;9.98;;
79338;SDS011;74181;41.704;44.786;2024-02-23T07:24:46;20.90;;;9.97;;
79338;SDS011;74181;41.704;44.786;2024-02-23T07:27:12;22.25;;;10.13;;
79338;SDS011;74181;41.704;44.786;2024-02-23T07:29:39;22.13;;;10.32;;
79338;SDS011;74181;41.704;44.786;2024-02-23T07:32:05;22.77;;;10.05;;
79338;SDS011;74181;41.704;44.786;2024-02-23T07:34:31;22.25;;;10.00;;
79338;SDS011;74181;41.704;44.786;2024-02-23T07:36:58;25.50;;;11.83;;
79338;SDS011;74181;41.704;44.786;2024-02-23T07:39:24;23.15;;;10.60;;
79338;SDS011;74181;41.704;44.786;2024-02-23T07:41:50;25.77;;;10.55;;
79338;SDS011;74181;41.704;44.786;2024-02-23T07:44:16;23.00;;;10.20;;
79338;SDS011;74181;41.704;44.786;2024-02-23T07:46:42;23.67;;;10.15;;
79338;SDS011;74181;41.704;44.786;2024-02-23T07:49:09;21.23;;;9.80;;
79338;SDS011;74181;41.704;44.786;2024-02-23T07:51:35;23.75;;;10.30;;
79338;SDS011;74181;41.704;44.786;2024-02-23T07:54:01;22.42;;;10.02;;
79338;SDS011;74181;41.704;44.786;2024-02-23T07:56:28;24.30;;;10.20;;
79338;SDS011;74181;41.704;44.786;2024-02-23T07:58:55;22.20;;;10.23;;
79338;SDS011;74181;41.704;44.786;2024-02-23T08:01:21;23.13;;;9.50;;
79338;SDS011;74181;41.704;44.786;2024-02-23T08:03:48;18.80;;;8.88;;
79338;SDS011;74181;41.704;44.786;2024-02-23T08:06:14;19.90;;;9.50;;
79338;SDS011;74181;41.704;44.786;2024-02-23T08:08:40;20.23;;;9.55;;
79338;SDS011;74181;41.704;44.786;2024-02-23T08:11:06;19.05;;;8.60;;
79338;SDS011;74181;41.704;44.786;2024-02-23T08:13:33;21.13;;;9.17;;
79338;SDS011;74181;41.704;44.786;2024-02-23T08:15:59;20.55;;;9.27;;
79338;SDS011;74181;41.704;44.786;2024-02-23T08:18:25;21.80;;;9.80;;
79338;SDS011;74181;41.704;44.786;2024-02-23T08:20:52;18.77;;;9.40;;
79338;SDS011;74181;41.704;44.786;2024-02-23T08:23:18;20.42;;;9.40;;
79338;SDS011;74181;41.704;44.786;2024-02-23T08:25:46;21.90;;;9.80;;
79338;SDS011;74181;41.704;44.786;2024-02-23T08:28:13;21.83;;;9.82;;
79338;SDS011;74181;41.704;44.786;2024-02-23T08:30:42;19.58;;;8.38;;
79338;SDS011;74181;41.704;44.786;2024-02-23T08:33:09;19.83;;;8.35;;
79338;SDS011;74181;41.704;44.786;2024-02-23T08:35:35;22.40;;;9.10;;
79338;SDS011;74181;41.704;44.786;2024-02-23T08:38:10;18.90;;;9.03;;
79338;SDS011;74181;41.704;44.786;2024-02-23T08:40:37;19.08;;;9.38;;
79338;SDS011;74181;41.704;44.786;2024-02-23T08:43:05;24.00;;;9.98;;
79338;SDS011;74181;41.704;44.786;2024-02-23T08:45:38;20.83;;;10.30;;
79338;SDS011;74181;41.704;44.786;2024-02-23T08:48:04;16.67;;;7.55;;
79338;SDS011;74181;41.704;44.786;2024-02-23T08:50:32;18.30;;;7.13;;
79338;SDS011;74181;41.704;44.786;2024-02-23T08:52:59;14.75;;;6.50;;
79338;SDS011;74181;41.704;44.786;2024-02-23T08:55:26;14.35;;;6.72;;
79338;SDS011;74181;41.704;44.786;2024-02-23T08:57:52;15.48;;;6.32;;
79338;SDS011;74181;41.704;44.786;2024-02-23T09:00:19;12.95;;;5.88;;
79338;SDS011;74181;41.704;44.786;2024-02-23T09:02:45;13.07;;;5.93;;
79338;SDS011;74181;41.704;44.786;2024-02-23T09:05:11;20.45;;;10.15;;
79338;SDS011;74181;41.704;44.786;2024-02-23T09:07:38;14.35;;;6.60;;
79338;SDS011;74181;41.704;44.786;2024-02-23T09:10:04;12.13;;;5.70;;
79338;SDS011;74181;41.704;44.786;2024-02-23T09:12:31;14.48;;;6.80;;
79338;SDS011;74181;41.704;44.786;2024-02-23T09:14:57;14.80;;;7.07;;
79338;SDS011;74181;41.704;44.786;2024-02-23T09:17:23;15.13;;;6.93;;
79338;SDS011;74181;41.704;44.786;2024-02-23T09:19:51;14.65;;;6.82;;
79338;SDS011;74181;41.704;44.786;2024-02-23T09:22:17;11.85;;;6.05;;
79338;SDS011;74181;41.704;44.786;2024-02-23T09:24:46;12.60;;;6.22;;
79338;SDS011;74181;41.704;44.786;2024-02-23T09:27:20;13.07;;;6.50;;
79338;SDS011;74181;41.704;44.786;2024-02-23T09:29:47;13.63;;;5.95;;
79338;SDS011;74181;41.704;44.786;2024-02-23T09:32:13;12.70;;;5.72;;
79338;SDS011;74181;41.704;44.786;2024-02-23T09:34:39;15.63;;;6.80;;
79338;SDS011;74181;41.704;44.786;2024-02-23T09:37:05;16.52;;;7.32;;
79338;SDS011;74181;41.704;44.786;2024-02-23T09:39:31;14.70;;;6.70;;
79338;SDS011;74181;41.704;44.786;2024-02-23T09:41:58;18.00;;;7.90;;
79338;SDS011;74181;41.704;44.786;2024-02-23T09:44:25;15.77;;;7.80;;
79338;SDS011;74181;41.704;44.786;2024-02-23T09:46:53;16.63;;;7.90;;
79338;SDS011;74181;41.704;44.786;2024-02-23T09:49:20;21.95;;;9.40;;
79338;SDS011;74181;41.704;44.786;2024-02-23T09:51:47;20.53;;;9.17;;
79338;SDS011;74181;41.704;44.786;2024-02-23T09:54:13;22.80;;;9.52;;
79338;SDS011;74181;41.704;44.786;2024-02-23T09:56:39;20.08;;;9.45;;
79338;SDS011;74181;41.704;44.786;2024-02-23T09:59:05;20.63;;;9.73;;
79338;SDS011;74181;41.704;44.786;2024-02-23T10:01:32;21.23;;;9.70;;
79338;SDS011;74181;41.704;44.786;2024-02-23T10:04:02;23.37;;;10.40;;
79338;SDS011;74181;41.704;44.786;2024-02-23T10:06:32;19.02;;;9.57;;
79338;SDS011;74181;41.704;44.786;2024-02-23T10:08:58;21.90;;;9.88;;
79338;SDS011;74181;41.704;44.786;2024-02-23T10:11:24;20.20;;;9.80;;
79338;SDS011;74181;41.704;44.786;2024-02-23T10:13:55;24.88;;;10.10;;
79338;SDS011;74181;41.704;44.786;2024-02-23T10:16:21;22.00;;;9.77;;
79338;SDS011;74181;41.704;44.786;2024-02-23T10:18:48;25.13;;;9.38;;
79338;SDS011;74181;41.704;44.786;2024-02-23T10:21:15;24.80;;;9.88;;
79338;SDS011;74181;41.704;44.786;2024-02-23T10:23:43;20.20;;;9.30;;
79338;SDS011;74181;41.704;44.786;2024-02-23T10:26:10;21.50;;;9.50;;
79338;SDS011;74181;41.704;44.786;2024-02-23T10:28:39;20.13;;;9.53;;
79338;SDS011;74181;41.704;44.786;2024-02-23T10:31:06;19.48;;;9.38;;
79338;SDS011;74181;41.704;44.786;2024-02-23T10:33:32;22.42;;;9.05;;
79338;SDS011;74181;41.704;44.786;2024-02-23T10:36:00;20.88;;;9.45;;
79338;SDS011;74181;41.704;44.786;2024-02-23T10:38:27;17.38;;;8.60;;
79338;SDS011;74181;41.704;44.786;2024-02-23T10:40:55;18.90;;;9.13;;
79338;SDS011;74181;41.704;44.786;2024-02-23T10:43:33;19.20;;;9.20;;
79338;SDS011;74181;41.704;44.786;2024-02-23T10:46:00;21.23;;;9.70;;
79338;SDS011;74181;41.704;44.786;2024-02-23T10:48:28;15.98;;;8.15;;
79338;SDS011;74181;41.704;44.786;2024-02-23T10:50:55;18.48;;;8.90;;
79338;SDS011;74181;41.704;44.786;2024-02-23T10:53:22;16.77;;;7.93;;
79338;SDS011;74181;41.704;44.786;2024-02-23T10:55:51;18.15;;;8.88;;
79338;SDS011;74181;41.704;44.786;2024-02-23T10:58:18;18.30;;;8.05;;
79338;SDS011;74181;41.704;44.786;2024-02-23T11:00:44;17.50;;;8.18;;
79338;SDS011;74181;41.704;44.786;2024-02-23T11:03:12;17.08;;;7.90;;
79338;SDS011;74181;41.704;44.786;2024-02-23T11:05:39;19.60;;;7.33;;
79338;SDS011;74181;41.704;44.786;2024-02-23T11:08:06;16.13;;;7.47;;
79338;SDS011;74181;41.704;44.786;2024-02-23T11:10:41;15.00;;;7.65;;
79338;SDS011;74181;41.704;44.786;2024-02-23T11:13:08;15.57;;;7.60;;
79338;SDS011;74181;41.704;44.786;2024-02-23T11:15:34;15.20;;;7.65;;
79338;SDS011;74181;41.704;44.786;2024-02-23T11:21:09;16.83;;;8.05;;
79338;SDS011;74181;41.704;44.786;2024-02-23T11:23:51;17.23;;;7.53;;
79338;SDS011;74181;41.704;44.786;2024-02-23T11:26:22;15.63;;;7.10;;
79338;SDS011;74181;41.704;44.786;2024-02-23T11:28:49;16.60;;;7.55;;
79338;SDS011;74181;41.704;44.786;2024-02-23T11:31:23;15.77;;;7.33;;
79338;SDS011;74181;41.704;44.786;2024-02-23T11:33:51;16.92;;;7.93;;
79338;SDS011;74181;41.704;44.786;2024-02-23T11:36:34;15.65;;;7.53;;
79338;SDS011;74181;41.704;44.786;2024-02-23T11:39:02;15.77;;;7.28;;
79338;SDS011;74181;41.704;44.786;2024-02-23T11:41:28;16.90;;;8.05;;
79338;SDS011;74181;41.704;44.786;2024-02-23T11:43:55;16.90;;;7.90;;
79338;SDS011;74181;41.704;44.786;2024-02-23T11:46:22;16.05;;;7.55;;
79338;SDS011;74181;41.704;44.786;2024-02-23T11:48:48;15.73;;;7.90;;
79338;SDS011;74181;41.704;44.786;2024-02-23T11:51:22;17.38;;;8.40;;
79338;SDS011;74181;41.704;44.786;2024-02-23T11:53:49;19.70;;;8.82;;
79338;SDS011;74181;41.704;44.786;2024-02-23T11:56:16;16.10;;;7.97;;
79338;SDS011;74181;41.704;44.786;2024-02-23T11:58:44;14.50;;;7.20;;
79338;SDS011;74181;41.704;44.786;2024-02-23T12:01:10;19.45;;;8.40;;
79338;SDS011;74181;41.704;44.786;2024-02-23T12:03:36;16.88;;;7.90;;
79338;SDS011;74181;41.704;44.786;2024-02-23T12:06:05;16.67;;;7.78;;
79338;SDS011;74181;41.704;44.786;2024-02-23T12:08:33;15.80;;;7.80;;
79338;SDS011;74181;41.704;44.786;2024-02-23T12:11:05;16.67;;;7.93;;
79338;SDS011;74181;41.704;44.786;2024-02-23T12:13:37;18.35;;;9.18;;
79338;SDS011;74181;41.704;44.786;2024-02-23T12:16:04;14.95;;;7.22;;
79338;SDS011;74181;41.704;44.786;2024-02-23T12:18:33;15.48;;;7.47;;
79338;SDS011;74181;41.704;44.786;2024-02-23T12:21:01;14.50;;;6.90;;
79338;SDS011;74181;41.704;44.786;2024-02-23T12:23:44;16.88;;;7.65;;
79338;SDS011;74181;41.704;44.786;2024-02-23T12:26:14;21.00;;;9.95;;
79338;SDS011;74181;41.704;44.786;2024-02-23T12:28:41;17.45;;;7.55;;
79338;SDS011;74181;41.704;44.786;2024-02-23T12:31:08;15.13;;;7.05;;
79338;SDS011;74181;41.704;44.786;2024-02-23T12:33:34;15.73;;;6.87;;
79338;SDS011;74181;41.704;44.786;2024-02-23T12:36:02;14.75;;;6.90;;
79338;SDS011;74181;41.704;44.786;2024-02-23T12:38:29;15.13;;;7.70;;
79338;SDS011;74181;41.704;44.786;2024-02-23T12:40:55;14.93;;;7.30;;
79338;SDS011;74181;41.704;44.786;2024-02-23T12:43:22;11.57;;;5.93;;
79338;SDS011;74181;41.704;44.786;2024-02-23T12:45:54;11.07;;;5.30;;
79338;SDS011;74181;41.704;44.786;2024-02-23T12:48:21;12.65;;;6.15;;
79338;SDS011;74181;41.704;44.786;2024-02-23T12:50:47;11.43;;;5.57;;
79338;SDS011;74181;41.704;44.786;2024-02-23T12:53:36;11.82;;;6.00;;
79338;SDS011;74181;41.704;44.786;2024-02-23T12:56:03;11.40;;;5.30;;
79338;SDS011;74181;41.704;44.786;2024-02-23T12:58:37;10.83;;;5.37;;
79338;SDS011;74181;41.704;44.786;2024-02-23T13:01:04;11.30;;;5.60;;
79338;SDS011;74181;41.704;44.786;2024-02-23T13:03:32;11.98;;;5.53;;
79338;SDS011;74181;41.704;44.786;2024-02-23T13:05:58;10.68;;;5.47;;
79338;SDS011;74181;41.704;44.786;2024-02-23T13:08:25;13.43;;;6.88;;
79338;SDS011;74181;41.704;44.786;2024-02-23T13:10:52;12.20;;;5.90;;
79338;SDS011;74181;41.704;44.786;2024-02-23T13:13:19;12.60;;;6.10;;
79338;SDS011;74181;41.704;44.786;2024-02-23T13:15:46;11.73;;;5.72;;
79338;SDS011;74181;41.704;44.786;2024-02-23T13:18:13;12.18;;;5.93;;
79338;SDS011;74181;41.704;44.786;2024-02-23T13:20:39;13.80;;;6.20;;
79338;SDS011;74181;41.704;44.786;2024-02-23T13:23:09;12.50;;;5.87;;
79338;SDS011;74181;41.704;44.786;2024-02-23T13:25:38;14.50;;;5.88;;
79338;SDS011;74181;41.704;44.786;2024-02-23T13:28:04;16.17;;;7.15;;
79338;SDS011;74181;41.704;44.786;2024-02-23T13:30:31;13.68;;;5.75;;
79338;SDS011;74181;41.704;44.786;2024-02-23T13:32:59;12.90;;;6.25;;
79338;SDS011;74181;41.704;44.786;2024-02-23T13:35:26;11.63;;;5.63;;
79338;SDS011;74181;41.704;44.786;2024-02-23T13:37:52;12.07;;;6.25;;
79338;SDS011;74181;41.704;44.786;2024-02-23T13:40:19;13.65;;;5.95;;
79338;SDS011;74181;41.704;44.786;2024-02-23T13:42:46;14.32;;;6.30;;
79338;SDS011;74181;41.704;44.786;2024-02-23T13:45:18;11.85;;;5.85;;
79338;SDS011;74181;41.704;44.786;2024-02-23T13:47:57;12.60;;;5.90;;
79338;SDS011;74181;41.704;44.786;2024-02-23T13:50:27;11.13;;;5.90;;
79338;SDS011;74181;41.704;44.786;2024-02-23T13:52:56;11.02;;;5.25;;
79338;SDS011;74181;41.704;44.786;2024-02-23T13:55:22;10.18;;;5.47;;
79338;SDS011;74181;41.704;44.786;2024-02-23T13:57:49;12.18;;;5.55;;
79338;SDS011;74181;41.704;44.786;2024-02-23T14:00:16;12.13;;;5.83;;
79338;SDS011;74181;41.704;44.786;2024-02-23T14:02:47;12.32;;;5.80;;
79338;SDS011;74181;41.704;44.786;2024-02-23T14:05:14;12.05;;;5.97;;
79338;SDS011;74181;41.704;44.786;2024-02-23T14:07:47;14.20;;;6.50;;
79338;SDS011;74181;41.704;44.786;2024-02-23T14:10:14;12.65;;;5.90;;
79338;SDS011;74181;41.704;44.786;2024-02-23T14:12:42;14.10;;;6.20;;
79338;SDS011;74181;41.704;44.786;2024-02-23T14:15:09;12.57;;;6.35;;
79338;SDS011;74181;41.704;44.786;2024-02-23T14:17:36;12.13;;;6.25;;
79338;SDS011;74181;41.704;44.786;2024-02-23T14:20:02;14.20;;;6.60;;
79338;SDS011;74181;41.704;44.786;2024-02-23T14:22:29;14.15;;;6.70;;
79338;SDS011;74181;41.704;44.786;2024-02-23T14:24:55;14.40;;;6.40;;